KAIA/AIA METAR and TAF weather

Enter ICAO airport designator
Station Type Date Time Source
KAIA METAR 2018/07/21 03:53 UTC NOAA

KAIA 210353Z AUTO 12008KT 10SM CLR 22/17 A3011 RMK AO2 SLP148 T02220172


Station Type Date Time Source
KAIA Decoded METAR 2018/07/21 03:53 UTC NOAA

ALLIANCE MUNICIPAL AIRPORT, NE, United States (KAIA) 42-03N 102-48W 1196M
Jul 20, 2018 - 11:53 PM EDT / 2018.07.21 0353 UTC
Wind: from the ESE (120 degrees) at 9 MPH (8 KT):0
Visibility: 10 mile(s):0
Sky conditions: clear
Temperature: 72.0 F (22.2 C)
Dew Point: 63.0 F (17.2 C)
Relative Humidity: 73%
Pressure (altimeter): 30.11 in. Hg (1019 hPa)
ob: KAIA 210353Z AUTO 12008KT 10SM CLR 22/17 A3011 RMK AO2 SLP148 T02220172
cycle: 4

Station Type Date Time Source
KAIA TAF 2018/07/20 18:52 UTC NOAA

TAF KAIA 201750Z 2018/2118 13011KT P6SM FEW250
FM210000 11010KT P6SM FEW100
FM211600 16012G19KT P6SM BKN050


Example: see airport list